sensor_id;sensor_type;location;lat;lon;timestamp;temperature;humidity
4739;DHT22;2383;48.632;10.156;2023-03-16T00:03:10;0.00;93.80
4739;DHT22;2383;48.632;10.156;2023-03-16T00:07:14;0.10;93.60
4739;DHT22;2383;48.632;10.156;2023-03-16T00:11:16;0.10;93.50
4739;DHT22;2383;48.632;10.156;2023-03-16T00:15:18;0.10;93.30
4739;DHT22;2383;48.632;10.156;2023-03-16T00:19:20;-0.10;93.80
4739;DHT22;2383;48.632;10.156;2023-03-16T00:23:24;0.10;94.00
4739;DHT22;2383;48.632;10.156;2023-03-16T00:27:29;0.10;93.30
4739;DHT22;2383;48.632;10.156;2023-03-16T00:31:31;0.00;93.60
4739;DHT22;2383;48.632;10.156;2023-03-16T00:35:34;0.00;93.40
4739;DHT22;2383;48.632;10.156;2023-03-16T00:39:36;0.10;93.40
4739;DHT22;2383;48.632;10.156;2023-03-16T00:43:38;-0.20;93.50
4739;DHT22;2383;48.632;10.156;2023-03-16T00:47:45;0.00;94.10
4739;DHT22;2383;48.632;10.156;2023-03-16T00:51:47;0.30;94.20
4739;DHT22;2383;48.632;10.156;2023-03-16T00:55:49;0.10;94.30
4739;DHT22;2383;48.632;10.156;2023-03-16T00:59:51;-0.10;94.30
4739;DHT22;2383;48.632;10.156;2023-03-16T01:03:53;-0.10;94.80
4739;DHT22;2383;48.632;10.156;2023-03-16T01:07:55;-0.50;95.10
4739;DHT22;2383;48.632;10.156;2023-03-16T01:11:57;-0.30;95.10
4739;DHT22;2383;48.632;10.156;2023-03-16T01:16:01;-0.50;95.10
4739;DHT22;2383;48.632;10.156;2023-03-16T01:20:05;-0.40;95.10
4739;DHT22;2383;48.632;10.156;2023-03-16T01:24:09;-0.20;95.20
4739;DHT22;2383;48.632;10.156;2023-03-16T01:28:10;-0.20;95.00
4739;DHT22;2383;48.632;10.156;2023-03-16T01:32:14;-0.50;95.20
4739;DHT22;2383;48.632;10.156;2023-03-16T01:36:18;-0.10;95.40
4739;DHT22;2383;48.632;10.156;2023-03-16T01:40:25;0.10;94.90
4739;DHT22;2383;48.632;10.156;2023-03-16T01:44:27;-0.10;95.20
4739;DHT22;2383;48.632;10.156;2023-03-16T01:52:52;0.40;94.90
4739;DHT22;2383;48.632;10.156;2023-03-16T02:01:12;0.30;95.10
4739;DHT22;2383;48.632;10.156;2023-03-16T02:05:19;-0.20;95.30
4739;DHT22;2383;48.632;10.156;2023-03-16T02:09:24;-0.10;95.40
4739;DHT22;2383;48.632;10.156;2023-03-16T02:13:27;-0.10;95.60
4739;DHT22;2383;48.632;10.156;2023-03-16T02:17:31;0.00;95.60
4739;DHT22;2383;48.632;10.156;2023-03-16T02:21:57;0.20;95.50
4739;DHT22;2383;48.632;10.156;2023-03-16T02:26:14;0.40;95.40
4739;DHT22;2383;48.632;10.156;2023-03-16T02:30:19;0.20;95.20
4739;DHT22;2383;48.632;10.156;2023-03-16T02:34:37;-0.30;95.50
4739;DHT22;2383;48.632;10.156;2023-03-16T02:38:39;0.00;95.80
4739;DHT22;2383;48.632;10.156;2023-03-16T02:42:42;0.30;95.40
4739;DHT22;2383;48.632;10.156;2023-03-16T02:46:45;0.50;95.20
4739;DHT22;2383;48.632;10.156;2023-03-16T02:50:51;0.60;94.90
4739;DHT22;2383;48.632;10.156;2023-03-16T02:54:53;0.60;94.90
4739;DHT22;2383;48.632;10.156;2023-03-16T02:58:55;0.20;95.30
4739;DHT22;2383;48.632;10.156;2023-03-16T03:02:59;0.00;95.60
4739;DHT22;2383;48.632;10.156;2023-03-16T03:07:01;0.40;95.60
4739;DHT22;2383;48.632;10.156;2023-03-16T03:11:14;0.10;95.50
4739;DHT22;2383;48.632;10.156;2023-03-16T03:15:17;0.30;95.50
4739;DHT22;2383;48.632;10.156;2023-03-16T03:19:29;0.50;95.30
4739;DHT22;2383;48.632;10.156;2023-03-16T03:23:31;0.40;95.30
4739;DHT22;2383;48.632;10.156;2023-03-16T03:27:33;0.40;95.40
4739;DHT22;2383;48.632;10.156;2023-03-16T03:31:39;0.30;95.50
4739;DHT22;2383;48.632;10.156;2023-03-16T03:35:42;0.60;95.40
4739;DHT22;2383;48.632;10.156;2023-03-16T03:39:44;0.80;95.20
4739;DHT22;2383;48.632;10.156;2023-03-16T03:43:47;0.60;95.50
4739;DHT22;2383;48.632;10.156;2023-03-16T03:47:51;0.10;95.90
4739;DHT22;2383;48.632;10.156;2023-03-16T03:51:56;0.10;96.10
4739;DHT22;2383;48.632;10.156;2023-03-16T03:56:00;0.50;96.30
4739;DHT22;2383;48.632;10.156;2023-03-16T04:00:04;0.70;95.80
4739;DHT22;2383;48.632;10.156;2023-03-16T04:04:16;0.60;95.90
4739;DHT22;2383;48.632;10.156;2023-03-16T04:08:18;0.60;96.20
4739;DHT22;2383;48.632;10.156;2023-03-16T04:12:20;0.60;96.00
4739;DHT22;2383;48.632;10.156;2023-03-16T04:16:22;0.50;96.20
4739;DHT22;2383;48.632;10.156;2023-03-16T04:20:28;0.60;96.20
4739;DHT22;2383;48.632;10.156;2023-03-16T04:24:31;0.60;96.00
4739;DHT22;2383;48.632;10.156;2023-03-16T04:28:35;0.60;96.10
4739;DHT22;2383;48.632;10.156;2023-03-16T04:32:37;0.40;96.20
4739;DHT22;2383;48.632;10.156;2023-03-16T04:36:39;0.30;96.60
4739;DHT22;2383;48.632;10.156;2023-03-16T04:40:43;0.40;96.50
4739;DHT22;2383;48.632;10.156;2023-03-16T04:44:50;0.00;96.70
4739;DHT22;2383;48.632;10.156;2023-03-16T04:48:53;0.30;96.60
4739;DHT22;2383;48.632;10.156;2023-03-16T04:53:00;0.60;96.20
4739;DHT22;2383;48.632;10.156;2023-03-16T04:57:03;0.60;95.90
4739;DHT22;2383;48.632;10.156;2023-03-16T05:01:13;0.50;96.20
4739;DHT22;2383;48.632;10.156;2023-03-16T05:05:16;0.70;96.30
4739;DHT22;2383;48.632;10.156;2023-03-16T05:09:18;0.90;96.00
4739;DHT22;2383;48.632;10.156;2023-03-16T05:13:21;0.90;96.00
4739;DHT22;2383;48.632;10.156;2023-03-16T05:17:24;1.00;96.00
4739;DHT22;2383;48.632;10.156;2023-03-16T05:21:27;1.10;96.00
4739;DHT22;2383;48.632;10.156;2023-03-16T05:25:36;1.10;95.80
4739;DHT22;2383;48.632;10.156;2023-03-16T05:29:40;1.00;95.80
4739;DHT22;2383;48.632;10.156;2023-03-16T05:33:47;0.80;96.10
4739;DHT22;2383;48.632;10.156;2023-03-16T05:37:52;0.70;96.30
4739;DHT22;2383;48.632;10.156;2023-03-16T05:41:56;0.40;96.70
4739;DHT22;2383;48.632;10.156;2023-03-16T05:46:19;0.70;97.00
4739;DHT22;2383;48.632;10.156;2023-03-16T05:50:23;0.10;97.10
4739;DHT22;2383;48.632;10.156;2023-03-16T05:54:25;0.00;97.30
4739;DHT22;2383;48.632;10.156;2023-03-16T05:58:27;0.10;97.70
4739;DHT22;2383;48.632;10.156;2023-03-16T06:02:29;0.00;97.30
4739;DHT22;2383;48.632;10.156;2023-03-16T06:06:31;0.00;97.70
4739;DHT22;2383;48.632;10.156;2023-03-16T06:10:46;0.10;97.60
4739;DHT22;2383;48.632;10.156;2023-03-16T06:14:50;0.30;97.50
4739;DHT22;2383;48.632;10.156;2023-03-16T06:18:53;0.30;97.20
4739;DHT22;2383;48.632;10.156;2023-03-16T06:22:57;0.50;97.10
4739;DHT22;2383;48.632;10.156;2023-03-16T06:27:00;0.20;97.30
4739;DHT22;2383;48.632;10.156;2023-03-16T06:31:08;0.70;97.20
4739;DHT22;2383;48.632;10.156;2023-03-16T06:35:11;0.80;96.60
4739;DHT22;2383;48.632;10.156;2023-03-16T06:39:18;0.70;96.80
4739;DHT22;2383;48.632;10.156;2023-03-16T06:43:23;0.50;96.80
4739;DHT22;2383;48.632;10.156;2023-03-16T06:47:26;0.40;97.00
4739;DHT22;2383;48.632;10.156;2023-03-16T06:51:28;0.70;96.90
4739;DHT22;2383;48.632;10.156;2023-03-16T06:55:30;1.00;96.90
4739;DHT22;2383;48.632;10.156;2023-03-16T06:59:33;1.40;96.40
4739;DHT22;2383;48.632;10.156;2023-03-16T07:03:35;1.50;96.10
4739;DHT22;2383;48.632;10.156;2023-03-16T07:07:49;1.00;96.10
4739;DHT22;2383;48.632;10.156;2023-03-16T07:11:51;1.10;96.30
4739;DHT22;2383;48.632;10.156;2023-03-16T07:15:53;0.70;96.70
4739;DHT22;2383;48.632;10.156;2023-03-16T07:19:57;0.80;97.00
4739;DHT22;2383;48.632;10.156;2023-03-16T07:23:59;0.60;97.30
4739;DHT22;2383;48.632;10.156;2023-03-16T07:28:05;1.20;96.90
4739;DHT22;2383;48.632;10.156;2023-03-16T07:32:13;1.20;96.50
4739;DHT22;2383;48.632;10.156;2023-03-16T07:36:15;1.10;96.70
4739;DHT22;2383;48.632;10.156;2023-03-16T07:40:24;0.70;97.30
4739;DHT22;2383;48.632;10.156;2023-03-16T07:44:30;0.30;97.10
4739;DHT22;2383;48.632;10.156;2023-03-16T07:48:32;0.60;97.70
4739;DHT22;2383;48.632;10.156;2023-03-16T07:52:36;1.10;97.30
4739;DHT22;2383;48.632;10.156;2023-03-16T07:56:39;1.50;97.00
4739;DHT22;2383;48.632;10.156;2023-03-16T08:01:01;1.50;96.80
4739;DHT22;2383;48.632;10.156;2023-03-16T08:05:03;1.60;96.70
4739;DHT22;2383;48.632;10.156;2023-03-16T08:09:05;1.70;96.90
4739;DHT22;2383;48.632;10.156;2023-03-16T08:13:10;1.50;97.00
4739;DHT22;2383;48.632;10.156;2023-03-16T08:17:15;1.70;96.80
4739;DHT22;2383;48.632;10.156;2023-03-16T08:21:19;1.50;96.90
4739;DHT22;2383;48.632;10.156;2023-03-16T08:25:22;1.80;96.60
4739;DHT22;2383;48.632;10.156;2023-03-16T08:29:32;1.60;97.20
4739;DHT22;2383;48.632;10.156;2023-03-16T08:33:41;1.20;97.40
4739;DHT22;2383;48.632;10.156;2023-03-16T08:37:44;1.30;97.90
4739;DHT22;2383;48.632;10.156;2023-03-16T08:41:47;1.20;98.00
4739;DHT22;2383;48.632;10.156;2023-03-16T08:45:57;1.00;98.30
4739;DHT22;2383;48.632;10.156;2023-03-16T08:50:07;1.50;97.40
4739;DHT22;2383;48.632;10.156;2023-03-16T08:54:09;1.70;96.80
4739;DHT22;2383;48.632;10.156;2023-03-16T08:58:11;2.00;96.80
4739;DHT22;2383;48.632;10.156;2023-03-16T09:02:14;2.10;96.40
4739;DHT22;2383;48.632;10.156;2023-03-16T09:06:16;2.10;96.20
4739;DHT22;2383;48.632;10.156;2023-03-16T09:10:19;2.20;96.10
4739;DHT22;2383;48.632;10.156;2023-03-16T09:14:23;2.40;96.20
4739;DHT22;2383;48.632;10.156;2023-03-16T09:18:26;2.30;96.80
4739;DHT22;2383;48.632;10.156;2023-03-16T09:22:28;2.10;96.80
4739;DHT22;2383;48.632;10.156;2023-03-16T09:26:30;2.50;96.20
4739;DHT22;2383;48.632;10.156;2023-03-16T09:30:32;2.40;96.60
4739;DHT22;2383;48.632;10.156;2023-03-16T09:34:35;2.00;97.20
4739;DHT22;2383;48.632;10.156;2023-03-16T09:38:37;2.10;97.40
4739;DHT22;2383;48.632;10.156;2023-03-16T09:43:00;1.90;97.80
4739;DHT22;2383;48.632;10.156;2023-03-16T09:47:06;2.80;97.10
4739;DHT22;2383;48.632;10.156;2023-03-16T09:51:24;3.30;96.40
4739;DHT22;2383;48.632;10.156;2023-03-16T09:55:36;3.60;96.00
4739;DHT22;2383;48.632;10.156;2023-03-16T09:59:38;3.10;96.30
4739;DHT22;2383;48.632;10.156;2023-03-16T10:08:13;3.00;96.20
4739;DHT22;2383;48.632;10.156;2023-03-16T10:12:16;3.30;96.20
4739;DHT22;2383;48.632;10.156;2023-03-16T10:20:33;3.80;95.80
4739;DHT22;2383;48.632;10.156;2023-03-16T10:29:03;3.80;95.60
4739;DHT22;2383;48.632;10.156;2023-03-16T10:33:37;4.10;94.90
4739;DHT22;2383;48.632;10.156;2023-03-16T10:37:40;3.60;95.70
4739;DHT22;2383;48.632;10.156;2023-03-16T10:41:43;4.10;95.00
4739;DHT22;2383;48.632;10.156;2023-03-16T10:45:46;3.80;95.50
4739;DHT22;2383;48.632;10.156;2023-03-16T10:49:49;3.60;95.60
4739;DHT22;2383;48.632;10.156;2023-03-16T10:53:52;4.10;95.50
4739;DHT22;2383;48.632;10.156;2023-03-16T10:57:55;4.30;94.90
4739;DHT22;2383;48.632;10.156;2023-03-16T11:01:58;4.00;95.20
4739;DHT22;2383;48.632;10.156;2023-03-16T11:06:02;3.40;96.80
4739;DHT22;2383;48.632;10.156;2023-03-16T11:10:41;3.80;96.20
4739;DHT22;2383;48.632;10.156;2023-03-16T11:15:03;4.40;95.70
4739;DHT22;2383;48.632;10.156;2023-03-16T11:19:29;4.30;95.20
4739;DHT22;2383;48.632;10.156;2023-03-16T11:23:33;4.60;95.60
4739;DHT22;2383;48.632;10.156;2023-03-16T11:32:17;4.10;95.60
4739;DHT22;2383;48.632;10.156;2023-03-16T11:36:31;4.70;95.90
4739;DHT22;2383;48.632;10.156;2023-03-16T11:40:58;5.30;94.50
4739;DHT22;2383;48.632;10.156;2023-03-16T11:53:50;5.90;93.70
4739;DHT22;2383;48.632;10.156;2023-03-16T11:58:18;6.30;93.40
4739;DHT22;2383;48.632;10.156;2023-03-16T12:02:50;6.10;93.70
4739;DHT22;2383;48.632;10.156;2023-03-16T12:11:22;5.60;93.30
4739;DHT22;2383;48.632;10.156;2023-03-16T12:19:43;6.20;92.90
4739;DHT22;2383;48.632;10.156;2023-03-16T12:23:51;5.60;92.30
4739;DHT22;2383;48.632;10.156;2023-03-16T12:27:56;6.10;91.90
4739;DHT22;2383;48.632;10.156;2023-03-16T12:32:24;6.50;90.90
4739;DHT22;2383;48.632;10.156;2023-03-16T12:49:43;6.40;89.70
4739;DHT22;2383;48.632;10.156;2023-03-16T12:53:51;6.20;90.40
4739;DHT22;2383;48.632;10.156;2023-03-16T12:58:03;6.00;90.80
4739;DHT22;2383;48.632;10.156;2023-03-16T13:02:13;6.30;89.70
4739;DHT22;2383;48.632;10.156;2023-03-16T13:06:18;6.40;89.80
4739;DHT22;2383;48.632;10.156;2023-03-16T13:10:21;6.20;89.40
4739;DHT22;2383;48.632;10.156;2023-03-16T13:14:42;6.00;89.60
4739;DHT22;2383;48.632;10.156;2023-03-16T13:18:45;6.30;89.10
4739;DHT22;2383;48.632;10.156;2023-03-16T13:22:49;6.90;88.70
4739;DHT22;2383;48.632;10.156;2023-03-16T13:27:09;7.00;88.40
4739;DHT22;2383;48.632;10.156;2023-03-16T13:35:27;6.90;86.30
4739;DHT22;2383;48.632;10.156;2023-03-16T13:39:32;6.70;85.70
4739;DHT22;2383;48.632;10.156;2023-03-16T13:43:37;7.10;86.50
4739;DHT22;2383;48.632;10.156;2023-03-16T13:47:43;7.20;88.80
4739;DHT22;2383;48.632;10.156;2023-03-16T13:51:46;7.00;88.60
4739;DHT22;2383;48.632;10.156;2023-03-16T13:55:50;7.30;88.30
4739;DHT22;2383;48.632;10.156;2023-03-16T14:00:13;6.80;89.50
4739;DHT22;2383;48.632;10.156;2023-03-16T14:04:16;6.50;90.20
4739;DHT22;2383;48.632;10.156;2023-03-16T14:08:23;6.90;88.40
4739;DHT22;2383;48.632;10.156;2023-03-16T14:12:25;6.70;88.10
4739;DHT22;2383;48.632;10.156;2023-03-16T14:16:28;7.10;88.00
4739;DHT22;2383;48.632;10.156;2023-03-16T14:20:32;7.30;86.90
4739;DHT22;2383;48.632;10.156;2023-03-16T14:24:43;7.10;86.90
4739;DHT22;2383;48.632;10.156;2023-03-16T14:33:41;7.30;87.50
4739;DHT22;2383;48.632;10.156;2023-03-16T14:37:43;7.40;88.30
4739;DHT22;2383;48.632;10.156;2023-03-16T14:41:49;7.50;87.30
4739;DHT22;2383;48.632;10.156;2023-03-16T14:45:53;7.20;86.30
4739;DHT22;2383;48.632;10.156;2023-03-16T14:50:05;7.20;85.20
4739;DHT22;2383;48.632;10.156;2023-03-16T14:54:12;7.40;85.70
4739;DHT22;2383;48.632;10.156;2023-03-16T14:58:15;7.60;85.00
4739;DHT22;2383;48.632;10.156;2023-03-16T15:02:27;7.20;84.60
4739;DHT22;2383;48.632;10.156;2023-03-16T15:06:31;7.50;85.30
4739;DHT22;2383;48.632;10.156;2023-03-16T15:10:34;7.60;84.00
4739;DHT22;2383;48.632;10.156;2023-03-16T15:14:36;7.60;84.70
4739;DHT22;2383;48.632;10.156;2023-03-16T15:18:57;7.50;84.00
4739;DHT22;2383;48.632;10.156;2023-03-16T15:22:59;7.60;82.90
4739;DHT22;2383;48.632;10.156;2023-03-16T15:27:02;7.70;83.20
4739;DHT22;2383;48.632;10.156;2023-03-16T15:31:04;7.70;82.90
4739;DHT22;2383;48.632;10.156;2023-03-16T15:35:07;7.80;83.50
4739;DHT22;2383;48.632;10.156;2023-03-16T15:39:19;8.00;83.60
4739;DHT22;2383;48.632;10.156;2023-03-16T15:43:23;8.10;82.50
4739;DHT22;2383;48.632;10.156;2023-03-16T15:47:25;8.30;83.00
4739;DHT22;2383;48.632;10.156;2023-03-16T15:51:29;8.20;82.50
4739;DHT22;2383;48.632;10.156;2023-03-16T15:55:36;8.00;81.60
4739;DHT22;2383;48.632;10.156;2023-03-16T15:59:39;8.10;81.40
4739;DHT22;2383;48.632;10.156;2023-03-16T16:03:42;8.00;81.40
4739;DHT22;2383;48.632;10.156;2023-03-16T16:07:44;7.90;81.80
4739;DHT22;2383;48.632;10.156;2023-03-16T16:11:47;7.80;82.00
4739;DHT22;2383;48.632;10.156;2023-03-16T16:15:51;7.90;82.00
4739;DHT22;2383;48.632;10.156;2023-03-16T16:19:55;8.00;82.60
4739;DHT22;2383;48.632;10.156;2023-03-16T16:23:57;7.80;82.50
4739;DHT22;2383;48.632;10.156;2023-03-16T16:27:59;7.90;84.30
4739;DHT22;2383;48.632;10.156;2023-03-16T16:32:01;7.90;84.50
4739;DHT22;2383;48.632;10.156;2023-03-16T16:36:05;7.80;83.80
4739;DHT22;2383;48.632;10.156;2023-03-16T16:40:13;7.50;83.70
4739;DHT22;2383;48.632;10.156;2023-03-16T16:44:17;7.60;85.30
4739;DHT22;2383;48.632;10.156;2023-03-16T16:48:37;7.60;84.80
4739;DHT22;2383;48.632;10.156;2023-03-16T16:52:39;7.60;85.80
4739;DHT22;2383;48.632;10.156;2023-03-16T16:56:42;7.60;85.50
4739;DHT22;2383;48.632;10.156;2023-03-16T17:00:52;7.60;86.00
4739;DHT22;2383;48.632;10.156;2023-03-16T17:04:56;7.70;85.40
4739;DHT22;2383;48.632;10.156;2023-03-16T17:08:58;7.80;86.10
4739;DHT22;2383;48.632;10.156;2023-03-16T17:13:00;7.80;86.10
4739;DHT22;2383;48.632;10.156;2023-03-16T17:17:01;7.60;85.90
4739;DHT22;2383;48.632;10.156;2023-03-16T17:21:12;7.60;86.60
4739;DHT22;2383;48.632;10.156;2023-03-16T17:25:15;7.40;86.50
4739;DHT22;2383;48.632;10.156;2023-03-16T17:29:20;7.10;86.60
4739;DHT22;2383;48.632;10.156;2023-03-16T17:33:25;7.00;86.20
4739;DHT22;2383;48.632;10.156;2023-03-16T17:37:28;7.00;86.40
4739;DHT22;2383;48.632;10.156;2023-03-16T17:41:30;7.00;86.20
4739;DHT22;2383;48.632;10.156;2023-03-16T17:45:33;6.90;85.60
4739;DHT22;2383;48.632;10.156;2023-03-16T17:49:35;7.00;86.80
4739;DHT22;2383;48.632;10.156;2023-03-16T17:53:37;7.00;86.20
4739;DHT22;2383;48.632;10.156;2023-03-16T17:57:39;6.90;86.30
4739;DHT22;2383;48.632;10.156;2023-03-16T18:01:43;6.90;86.50
4739;DHT22;2383;48.632;10.156;2023-03-16T18:05:46;6.90;86.70
4739;DHT22;2383;48.632;10.156;2023-03-16T18:09:48;6.70;86.90
4739;DHT22;2383;48.632;10.156;2023-03-16T18:13:50;6.80;87.20
4739;DHT22;2383;48.632;10.156;2023-03-16T18:17:52;6.70;87.00
4739;DHT22;2383;48.632;10.156;2023-03-16T18:21:54;6.60;86.90
4739;DHT22;2383;48.632;10.156;2023-03-16T18:25:57;6.50;87.20
4739;DHT22;2383;48.632;10.156;2023-03-16T18:30:04;6.50;87.80
4739;DHT22;2383;48.632;10.156;2023-03-16T18:34:06;6.50;87.80
4739;DHT22;2383;48.632;10.156;2023-03-16T18:38:31;6.50;88.30
4739;DHT22;2383;48.632;10.156;2023-03-16T18:42:33;6.40;88.80
4739;DHT22;2383;48.632;10.156;2023-03-16T18:46:36;6.40;89.20
4739;DHT22;2383;48.632;10.156;2023-03-16T18:50:39;6.30;89.40
4739;DHT22;2383;48.632;10.156;2023-03-16T18:54:44;6.20;89.60
4739;DHT22;2383;48.632;10.156;2023-03-16T18:58:48;6.20;90.00
4739;DHT22;2383;48.632;10.156;2023-03-16T19:02:59;6.10;90.00
4739;DHT22;2383;48.632;10.156;2023-03-16T19:07:03;6.10;90.50
4739;DHT22;2383;48.632;10.156;2023-03-16T19:11:09;6.00;90.20
4739;DHT22;2383;48.632;10.156;2023-03-16T19:15:20;6.00;90.40
4739;DHT22;2383;48.632;10.156;2023-03-16T19:19:23;5.90;90.50
4739;DHT22;2383;48.632;10.156;2023-03-16T19:23:27;5.90;90.70
4739;DHT22;2383;48.632;10.156;2023-03-16T19:27:33;5.70;90.50
4739;DHT22;2383;48.632;10.156;2023-03-16T19:31:39;5.60;90.30
4739;DHT22;2383;48.632;10.156;2023-03-16T19:35:41;5.60;90.50
4739;DHT22;2383;48.632;10.156;2023-03-16T19:39:52;5.50;90.50
4739;DHT22;2383;48.632;10.156;2023-03-16T19:43:56;5.40;90.60
4739;DHT22;2383;48.632;10.156;2023-03-16T19:47:59;5.30;90.50
4739;DHT22;2383;48.632;10.156;2023-03-16T19:52:01;5.20;90.60
4739;DHT22;2383;48.632;10.156;2023-03-16T19:56:03;5.20;90.60
4739;DHT22;2383;48.632;10.156;2023-03-16T20:00:06;5.20;90.60
4739;DHT22;2383;48.632;10.156;2023-03-16T20:04:35;5.00;90.70
4739;DHT22;2383;48.632;10.156;2023-03-16T20:08:38;5.00;91.00
4739;DHT22;2383;48.632;10.156;2023-03-16T20:12:41;4.90;90.70
4739;DHT22;2383;48.632;10.156;2023-03-16T20:16:42;4.90;90.80
4739;DHT22;2383;48.632;10.156;2023-03-16T20:20:45;4.90;91.10
4739;DHT22;2383;48.632;10.156;2023-03-16T20:24:48;4.90;90.80
4739;DHT22;2383;48.632;10.156;2023-03-16T20:28:51;4.50;91.00
4739;DHT22;2383;48.632;10.156;2023-03-16T20:32:53;4.40;91.10
4739;DHT22;2383;48.632;10.156;2023-03-16T20:36:55;4.50;91.10
4739;DHT22;2383;48.632;10.156;2023-03-16T20:40:59;4.40;91.30
4739;DHT22;2383;48.632;10.156;2023-03-16T20:45:06;4.20;91.20
4739;DHT22;2383;48.632;10.156;2023-03-16T20:53:25;4.00;91.60
4739;DHT22;2383;48.632;10.156;2023-03-16T20:57:29;4.00;91.50
4739;DHT22;2383;48.632;10.156;2023-03-16T21:01:30;4.00;92.00
4739;DHT22;2383;48.632;10.156;2023-03-16T21:05:34;3.90;92.30
4739;DHT22;2383;48.632;10.156;2023-03-16T21:09:36;3.90;92.40
4739;DHT22;2383;48.632;10.156;2023-03-16T21:13:38;3.80;92.30
4739;DHT22;2383;48.632;10.156;2023-03-16T21:17:40;3.70;92.30
4739;DHT22;2383;48.632;10.156;2023-03-16T21:21:42;3.60;92.30
4739;DHT22;2383;48.632;10.156;2023-03-16T21:25:50;3.70;92.50
4739;DHT22;2383;48.632;10.156;2023-03-16T21:29:54;3.60;92.20
4739;DHT22;2383;48.632;10.156;2023-03-16T21:33:56;3.20;92.10
4739;DHT22;2383;48.632;10.156;2023-03-16T21:37:59;3.10;92.40
4739;DHT22;2383;48.632;10.156;2023-03-16T21:42:02;3.10;92.50
4739;DHT22;2383;48.632;10.156;2023-03-16T21:46:08;3.10;92.40
4739;DHT22;2383;48.632;10.156;2023-03-16T21:50:18;3.10;92.20
4739;DHT22;2383;48.632;10.156;2023-03-16T21:54:20;3.00;92.40
4739;DHT22;2383;48.632;10.156;2023-03-16T21:58:22;2.90;92.30
4739;DHT22;2383;48.632;10.156;2023-03-16T22:02:25;2.60;92.50
4739;DHT22;2383;48.632;10.156;2023-03-16T22:06:28;2.60;92.80
4739;DHT22;2383;48.632;10.156;2023-03-16T22:10:30;2.60;92.60
4739;DHT22;2383;48.632;10.156;2023-03-16T22:14:32;2.60;92.60
4739;DHT22;2383;48.632;10.156;2023-03-16T22:18:36;2.50;92.70
4739;DHT22;2383;48.632;10.156;2023-03-16T22:22:37;2.40;92.60
4739;DHT22;2383;48.632;10.156;2023-03-16T22:26:39;2.50;92.70
4739;DHT22;2383;48.632;10.156;2023-03-16T22:30:42;2.80;92.90
4739;DHT22;2383;48.632;10.156;2023-03-16T22:34:52;2.60;92.40
4739;DHT22;2383;48.632;10.156;2023-03-16T22:39:04;2.50;92.30
4739;DHT22;2383;48.632;10.156;2023-03-16T22:43:17;2.40;92.40
4739;DHT22;2383;48.632;10.156;2023-03-16T22:47:24;2.40;92.40
4739;DHT22;2383;48.632;10.156;2023-03-16T22:51:34;2.50;92.50
4739;DHT22;2383;48.632;10.156;2023-03-16T22:55:38;2.50;92.20
4739;DHT22;2383;48.632;10.156;2023-03-16T22:59:41;1.90;92.40
4739;DHT22;2383;48.632;10.156;2023-03-16T23:03:48;1.70;92.80
4739;DHT22;2383;48.632;10.156;2023-03-16T23:07:51;1.60;93.00
4739;DHT22;2383;48.632;10.156;2023-03-16T23:11:54;1.60;92.90
4739;DHT22;2383;48.632;10.156;2023-03-16T23:15:57;1.50;93.10
4739;DHT22;2383;48.632;10.156;2023-03-16T23:19:58;1.60;93.40
4739;DHT22;2383;48.632;10.156;2023-03-16T23:24:00;1.70;92.90
4739;DHT22;2383;48.632;10.156;2023-03-16T23:28:05;1.60;92.80
4739;DHT22;2383;48.632;10.156;2023-03-16T23:32:09;1.50;93.10
4739;DHT22;2383;48.632;10.156;2023-03-16T23:36:17;1.70;93.00
4739;DHT22;2383;48.632;10.156;2023-03-16T23:40:20;1.30;93.20
4739;DHT22;2383;48.632;10.156;2023-03-16T23:44:25;1.30;93.40
4739;DHT22;2383;48.632;10.156;2023-03-16T23:48:28;1.40;93.30
4739;DHT22;2383;48.632;10.156;2023-03-16T23:52:31;1.50;93.40
4739;DHT22;2383;48.632;10.156;2023-03-16T23:56:32;1.60;93.40
